Latest Weather Observations for Kingfish B

IDV60801

Issued at 9:22 pm EST Monday 24 September 2018 (issued every 10 minutes, with the page automatically refreshed every 10 minutes)

About weather observations | Map of weather stations | Latest weather observations for VIC | Other Formats
Station Details ID: 400139 Name: KINGFISH B (PLATFORM) Lat: -38.60 Lon: 148.19 Height: 31.4 m
Data from the previous 72 hours. | See also: Recent months for locations in Victoria
Date/Time
EST
Temp
°C
App
Temp
°C
Dew
Point
°C
Rel
Hum
%
Delta-T
°C
Wind Press
QNH
hPa
Press
MSL
hPa
Rain since
9am
mm
Dir  Spd
km/h
Gust
km/h
Spd
kts
Gust
kts
24/08:10pm 11.1 7.8 2.7 56 3.6 ESE 9 19 5 10 1030.1 - -
24/08:00pm 11.1 7.5 2.9 57 3.6 ESE 11 17 6 9 1030.1 - -
24/07:50pm 11.1 7.1 3.0 57 3.5 ESE 13 17 7 9 1030.0 - -
24/07:40pm 11.1 7.1 3.0 57 3.5 ESE 13 19 7 10 1030.0 - -
24/07:30pm 11.1 7.9 2.9 57 3.6 ESE 9 19 5 10 1030.1 - -
24/07:20pm 11.1 7.1 2.9 57 3.6 ESE 13 19 7 10 1030.1 - -
24/07:10pm 11.1 7.0 2.3 54 3.8 ESE 13 19 7 10 1030.0 - -
24/07:00pm 11.1 7.0 2.3 54 3.8 ESE 13 20 7 11 1029.9 - -
24/06:50pm 11.1 6.6 2.3 54 3.8 ESE 15 22 8 12 1030.0 - -
24/06:40pm 11.1 7.0 2.4 55 3.7 ESE 13 20 7 11 1030.0 - -
24/06:30pm 11.0 6.5 2.2 54 3.8 ESE 15 22 8 12 1029.9 - -
24/06:20pm 11.0 7.0 2.9 57 3.5 ESE 13 20 7 11 1029.8 - -
24/06:10pm 11.1 6.8 3.0 57 3.5 ESE 15 20 8 11 1029.7 - -
24/06:00pm 11.0 6.6 2.9 57 3.5 ESE 15 20 8 11 1029.6 - -
24/05:50pm 11.0 6.3 3.1 58 3.4 ESE 17 24 9 13 1029.5 - -
24/05:40pm 11.0 5.9 3.3 59 3.4 ESE 19 24 10 13 1029.4 - -
24/05:30pm 11.0 6.3 3.4 59 3.3 ESE 17 24 9 13 1029.4 - -
24/05:20pm 11.0 5.9 3.2 58 3.4 ESE 19 26 10 14 1029.3 - -
24/05:10pm 11.1 6.0 3.0 57 3.5 ESE 19 24 10 13 1029.3 - -
24/05:00pm 11.1 6.4 3.0 57 3.5 ESE 17 24 9 13 1029.3 - -
24/04:50pm 11.1 6.0 2.8 56 3.6 ESE 19 24 10 13 1029.4 - -
24/04:40pm 11.1 6.4 2.9 57 3.6 ESE 17 22 9 12 1029.4 - -
24/04:30pm 11.1 6.0 3.0 57 3.5 ESE 19 24 10 13 1029.5 - -
24/04:20pm 11.1 6.0 3.3 58 3.4 ESE 19 24 10 13 1029.5 - -
24/04:10pm 11.1 6.0 3.1 58 3.5 ESE 19 24 10 13 1029.5 - -
24/04:00pm 11.1 6.4 3.0 57 3.5 ESE 17 22 9 12 1029.6 - -
24/03:50pm 11.1 6.4 3.2 58 3.5 ESE 17 24 9 13 1029.6 - -
24/03:40pm 11.1 6.4 3.0 57 3.5 ESE 17 24 9 13 1029.6 - -
24/03:30pm 11.1 6.7 2.9 57 3.6 ESE 15 20 8 11 1029.7 - -
24/03:20pm 11.2 6.8 2.9 56 3.6 ESE 15 22 8 12 1029.8 - -
24/03:10pm 11.2 6.9 3.1 57 3.5 E 15 22 8 12 1029.8 - -
24/03:00pm 11.3 7.0 3.2 57 3.6 E 15 20 8 11 1029.9 - -
24/02:50pm 11.4 7.1 3.0 56 3.7 E 15 20 8 11 1030.0 - -
24/02:40pm 11.3 7.3 3.0 56 3.6 E 13 24 7 13 1030.2 - -
24/02:30pm 11.3 7.3 2.9 56 3.7 ESE 13 19 7 10 1030.3 - -
24/02:20pm 11.4 7.1 3.1 56 3.6 E 15 20 8 11 1030.3 - -
24/02:10pm 11.4 7.4 3.0 56 3.7 ESE 13 19 7 10 1030.4 - -
24/02:00pm 11.4 7.4 3.1 56 3.6 ESE 13 20 7 11 1030.5 - -
24/01:50pm 11.4 7.1 3.1 56 3.6 ESE 15 20 8 11 1030.5 - -
24/01:40pm 11.4 7.1 3.2 57 3.6 ESE 15 20 8 11 1030.7 - -
24/01:30pm 11.5 7.2 3.4 57 3.6 ESE 15 20 8 11 1030.8 - -
24/01:20pm 11.6 7.3 3.3 56 3.7 ESE 15 22 8 12 1030.8 - -
24/01:10pm 11.5 7.2 3.1 56 3.7 E 15 19 8 10 1030.9 - -
24/01:00pm 11.5 7.2 3.1 56 3.7 ESE 15 22 8 12 1030.9 - -
24/12:50pm 11.5 7.2 3.3 57 3.6 ESE 15 22 8 12 1031.0 - -
24/12:40pm 11.6 7.3 3.2 56 3.7 ESE 15 19 8 10 1031.1 - -
24/12:30pm 11.6 7.4 3.6 58 3.5 E 15 22 8 12 1031.2 - -
24/12:20pm 11.6 7.0 3.6 58 3.5 E 17 22 9 12 1031.4 - -
24/12:10pm 11.6 7.0 3.7 58 3.5 E 17 20 9 11 1031.5 - -
24/12:00pm 11.8 6.9 4.0 59 3.5 E 19 26 10 14 1031.5 - -
24/11:50am 11.8 7.6 3.8 58 3.6 E 15 20 8 11 1031.6 - -
24/11:40am 11.8 7.6 3.9 58 3.5 E 15 19 8 10 1031.7 - -
24/11:30am 11.7 7.1 3.8 58 3.5 E 17 22 9 12 1031.7 - -
24/11:20am 11.7 6.7 3.8 58 3.5 E 19 24 10 13 1031.8 - -
24/11:10am 11.8 7.6 3.8 58 3.6 E 15 22 8 12 1031.9 - -
24/11:00am 11.8 7.2 3.5 57 3.7 E 17 20 9 11 1032.0 - -
24/10:50am 11.9 7.9 2.6 53 4.0 E 13 19 7 10 1032.1 - -
24/10:40am 11.8 7.4 2.7 53 4.0 E 15 19 8 10 1032.2 - -
24/10:30am 11.6 6.8 2.6 54 3.9 ESE 17 20 9 11 1032.3 - -
24/10:20am 11.7 6.5 2.7 54 3.9 E 19 24 10 13 1032.4 - -
24/10:10am 11.9 7.6 3.0 54 3.9 E 15 22 8 12 1032.5 - -
24/10:00am 11.7 6.9 2.8 54 3.9 E 17 24 9 13 1032.6 - -
24/09:50am 11.8 6.6 2.7 53 4.0 E 19 24 10 13 1032.7 - -
24/09:40am 11.9 6.8 3.0 54 3.9 ESE 19 26 10 14 1032.8 - -
24/09:30am 11.9 6.8 3.1 55 3.9 ESE 19 24 10 13 1032.9 - -
24/09:20am 11.7 6.7 3.4 56 3.7 ESE 19 26 10 14 1032.9 - -
24/09:10am 11.7 6.4 3.2 56 3.7 E 20 28 11 15 1033.0 - -
24/09:00am 11.6 6.4 3.3 56 3.7 E 20 30 11 16 1033.0 - -
24/08:50am 11.7 6.7 3.6 57 3.6 E 19 26 10 14 1032.9 - -
24/08:40am 11.6 6.0 3.6 58 3.5 E 22 30 12 16 1032.8 - -
24/08:30am 11.7 6.5 3.5 57 3.6 E 20 24 11 13 1032.8 - -
24/08:20am 11.6 6.4 3.4 57 3.6 E 20 26 11 14 1032.8 - -
24/08:10am 11.5 6.4 4.0 60 3.4 E 20 26 11 14 1032.8 - -
24/08:00am 11.5 6.4 4.1 60 3.3 ESE 20 30 11 16 1032.8 - -
24/07:50am 11.5 6.5 3.8 59 3.4 ESE 19 24 10 13 1032.7 - -
24/07:40am 11.3 6.1 3.6 59 3.4 ESE 20 26 11 14 1032.7 - -
24/07:30am 11.4 6.2 3.4 58 3.5 ESE 20 26 11 14 1032.6 - -
24/07:20am 11.4 7.1 3.3 57 3.6 ESE 15 20 8 11 1032.5 - -
24/07:10am 11.2 6.1 2.9 56 3.6 ESE 19 24 10 13 1032.4 - -
24/07:00am 11.3 6.2 3.2 57 3.6 ESE 19 26 10 14 1032.2 - -
24/06:50am 11.0 5.7 3.2 58 3.4 ESE 20 28 11 15 1032.1 - -
24/06:40am 11.0 5.8 3.4 59 3.3 ESE 20 28 11 15 1032.1 - -
24/06:30am 10.9 5.7 3.5 60 3.3 ESE 20 30 11 16 1032.0 - -
24/06:20am 10.7 5.7 3.6 61 3.1 ESE 19 24 10 13 1031.9 - -
24/06:10am 10.4 5.8 3.9 64 2.9 ESE 17 26 9 14 1031.8 - -
24/06:00am 10.3 5.5 4.5 67 2.6 E 19 28 10 15 1031.8 - -
24/05:50am 10.2 5.2 4.4 67 2.6 E 20 35 11 19 1031.7 - -
24/05:40am 10.2 5.4 4.4 67 2.6 E 19 26 10 14 1031.7 - -
24/05:30am 10.2 5.2 4.4 67 2.6 E 20 28 11 15 1031.6 - -
24/05:20am 10.4 5.3 4.3 66 2.7 E 20 32 11 17 1031.4 - -
24/05:10am 10.6 5.2 4.3 65 2.8 E 22 30 12 16 1031.3 - -
24/05:00am 10.7 5.3 4.3 64 2.9 ESE 22 30 12 16 1031.2 - -
24/04:50am 10.5 5.6 4.3 65 2.8 ESE 19 26 10 14 1031.2 - -
24/04:40am 10.5 5.6 4.2 65 2.8 ESE 19 26 10 14 1031.1 - -
24/04:30am 10.5 5.6 4.3 65 2.8 E 19 26 10 14 1031.0 - -
24/04:20am 10.5 4.7 4.4 66 2.7 ESE 24 32 13 17 1030.9 - -
24/04:10am 10.4 4.6 4.5 67 2.6 ESE 24 30 13 16 1030.9 - -
24/04:00am 10.4 4.3 4.6 67 2.6 ESE 26 35 14 19 1030.8 - -
24/03:50am 10.5 4.4 4.6 67 2.7 ESE 26 35 14 19 1030.7 - -
24/03:40am 10.5 5.5 4.5 66 2.7 ESE 20 28 11 15 1030.7 - -
24/03:30am 10.4 5.4 4.8 68 2.5 ESE 20 30 11 16 1030.6 - -
24/03:20am 10.2 5.5 5.1 70 2.3 ESE 19 28 10 15 1030.6 - -
24/03:10am 10.0 5.3 5.3 72 2.1 ESE 19 24 10 13 1030.6 - -
24/03:00am 9.9 4.3 5.3 73 2.1 ESE 24 30 13 16 1030.6 - -
24/02:50am 9.9 4.4 5.7 75 1.9 ESE 24 30 13 16 1030.6 - -
24/02:40am 9.7 4.2 5.9 77 1.7 ESE 24 32 13 17 1030.6 - -
24/02:30am 9.5 4.0 6.0 79 1.6 ESE 24 30 13 16 1030.6 - -
24/02:20am 9.4 4.3 6.1 80 1.5 ESE 22 28 12 15 1030.7 - -
24/02:10am 9.4 3.9 5.9 79 1.6 ESE 24 32 13 17 1030.8 - -
24/02:00am 9.7 4.2 5.9 77 1.7 E 24 32 13 17 1030.8 - -
24/01:50am 9.8 5.2 5.7 75 1.9 E 19 28 10 15 1030.8 - -
24/01:40am 9.8 4.3 5.7 75 1.9 ESE 24 32 13 17 1030.9 - -
24/01:30am 9.9 5.1 5.8 75 1.9 ESE 20 26 11 14 1031.0 - -
24/01:20am 9.9 4.7 5.7 75 1.9 ESE 22 28 12 15 1031.1 - -
24/01:10am 9.9 5.1 5.6 74 2.0 ESE 20 26 11 14 1031.2 - -
24/01:00am 9.8 5.0 5.7 75 1.9 SE 20 26 11 14 1031.3 - -
24/12:50am 9.9 4.8 5.9 76 1.8 SE 22 30 12 16 1031.4 - -
24/12:40am 9.8 3.9 5.9 77 1.8 SE 26 33 14 18 1031.5 - -
24/12:30am 9.9 3.3 5.9 76 1.8 SE 30 35 16 19 1031.7 - -
24/12:20am 9.9 2.3 5.7 75 1.9 SE 35 39 19 21 1031.8 - -
24/12:10am 9.9 2.3 5.8 75 1.9 SE 35 43 19 23 1031.8 - -
24/12:00am 10.0 0.3 5.6 74 2.0 SE 46 52 25 28 1031.6 - -
 
Date/Time
EST
Temp
°C
App
Temp
°C
Dew
Point
°C
Rel
Hum
%
Delta-T
°C
Wind Press
QNH
hPa
Press
MSL
hPa
Rain since
9am
mm
Dir  Spd
km/h
Gust
km/h
Spd
kts
Gust
kts
23/11:50pm 10.4 1.6 5.6 72 2.2 ESE 41 50 22 27 1031.5 - -
23/11:40pm 10.3 1.4 5.3 71 2.3 ESE 41 48 22 26 1031.5 - -
23/11:30pm 10.5 2.0 5.2 70 2.4 SE 39 44 21 24 1031.5 - -
23/11:20pm 10.7 2.5 5.0 68 2.6 SE 37 43 20 23 1031.6 - -
23/11:10pm 10.7 3.3 5.0 68 2.6 SE 33 39 18 21 1031.6 - -
23/11:00pm 10.8 3.4 5.1 68 2.6 SE 33 39 18 21 1031.6 - -
23/10:50pm 10.7 3.0 5.2 69 2.5 SE 35 39 19 21 1031.6 - -
23/10:40pm 10.7 3.0 5.4 70 2.4 SE 35 39 19 21 1031.6 - -
23/10:30pm 10.7 2.6 5.4 70 2.4 SE 37 43 20 23 1031.6 - -
23/10:20pm 11.0 2.9 5.4 68 2.6 SE 37 44 20 24 1031.7 - -
23/10:10pm 11.2 4.1 5.4 67 2.7 SE 32 41 17 22 1031.7 - -
23/10:00pm 11.2 4.5 5.5 68 2.6 SSE 30 37 16 20 1031.8 - -
23/09:50pm 11.5 5.5 5.3 65 2.9 SSE 26 35 14 19 1031.8 - -
23/09:40pm 11.6 6.3 4.8 63 3.1 S 22 30 12 16 1031.8 - -
23/09:30pm 11.6 5.8 4.5 61 3.2 S 24 28 13 15 1031.8 - -
23/09:20pm 11.4 5.5 3.9 60 3.3 S 24 30 13 16 1031.8 - -
23/09:10pm 11.5 5.7 4.2 61 3.3 SSW 24 28 13 15 1031.8 - -
23/09:00pm 11.5 5.7 4.5 62 3.2 S 24 28 13 15 1031.7 - -
23/08:50pm 11.4 5.2 4.3 61 3.2 S 26 30 14 16 1031.7 - -
23/08:40pm 11.4 5.9 3.9 60 3.3 S 22 26 12 14 1031.6 - -
23/08:30pm 11.3 5.9 4.5 63 3.1 S 22 30 12 16 1031.5 - -
23/08:20pm 11.0 6.6 5.0 66 2.7 SSW 17 26 9 14 1031.4 - -
23/08:10pm 10.9 7.6 4.8 66 2.8 WSW 11 17 6 9 1031.2 - -
23/08:00pm 10.5 7.2 4.5 66 2.7 WSW 11 17 6 9 1031.2 - -
23/07:50pm 10.5 7.1 3.8 63 3.0 SW 11 17 6 9 1031.3 - -
23/07:40pm 10.5 5.6 4.2 65 2.8 S 19 32 10 17 1031.5 - -
23/07:30pm 10.5 4.6 3.9 63 2.9 SSE 24 35 13 19 1031.4 - -
23/07:20pm 11.4 5.1 3.7 59 3.4 S 26 35 14 19 1031.4 - -
23/07:10pm 11.8 5.3 4.6 61 3.3 SSW 28 33 15 18 1031.4 - -
23/07:00pm 11.8 5.3 4.9 62 3.2 SSW 28 35 15 19 1031.2 - -
23/06:50pm 11.9 5.0 4.6 61 3.3 SSW 30 35 16 19 1031.1 - -
23/06:40pm 11.9 4.6 4.5 60 3.4 SSW 32 39 17 21 1031.1 - -
23/06:30pm 11.9 4.4 4.6 61 3.3 SSW 33 39 18 21 1031.0 - -
23/06:20pm 11.9 4.1 4.7 61 3.3 SW 35 41 19 22 1030.8 - -
23/06:10pm 11.9 3.7 4.6 61 3.3 SW 37 44 20 24 1030.5 - -
23/06:00pm 11.9 3.7 4.8 62 3.2 SW 37 43 20 23 1030.1 - -
23/05:50pm 12.0 4.2 4.8 61 3.3 SW 35 43 19 23 1030.2 - -
23/05:40pm 12.0 4.1 4.5 60 3.4 SW 35 43 19 23 1030.1 - -
23/05:30pm 12.1 4.6 4.6 60 3.4 SW 33 39 18 21 1030.1 - -
23/05:20pm 12.0 3.3 4.3 59 3.5 SW 39 43 21 23 1030.2 - -
23/05:10pm 12.0 3.7 4.4 59 3.4 SW 37 43 20 23 1030.1 - -
23/05:00pm 12.0 3.0 4.5 60 3.4 SW 41 46 22 25 1029.6 - -
23/04:50pm 12.0 3.9 5.3 63 3.1 SW 37 44 20 24 1029.4 - -
23/04:40pm 12.1 4.0 5.2 62 3.2 SW 37 43 20 23 1029.4 - -
23/04:30pm 12.2 4.4 5.0 61 3.3 SW 35 41 19 22 1029.3 - -
23/04:20pm 12.2 3.6 4.5 59 3.5 SW 39 44 21 24 1029.2 - -
23/04:10pm 12.2 3.2 4.4 59 3.5 SW 41 46 22 25 1028.8 - -
23/04:00pm 12.2 3.5 4.3 58 3.6 SW 39 46 21 25 1029.0 - -
23/03:50pm 12.4 3.8 4.5 58 3.6 SW 39 44 21 24 1029.3 - -
23/03:40pm 12.3 3.7 4.4 58 3.6 SW 39 48 21 26 1028.8 - -
23/03:30pm 12.3 2.8 4.1 57 3.7 SW 43 46 23 25 1028.7 - -
23/03:20pm 12.3 3.6 4.0 57 3.7 SW 39 46 21 25 1028.8 - -
23/03:10pm 12.2 3.4 3.6 55 3.8 SW 39 44 21 24 1028.9 - -
23/03:00pm 12.1 3.3 3.4 55 3.9 SW 39 44 21 24 1028.7 - -
23/02:50pm 12.2 3.0 3.6 55 3.8 SW 41 48 22 26 1028.4 - -
23/02:40pm 12.2 3.8 3.5 55 3.9 SW 37 43 20 23 1028.6 - -
23/02:30pm 12.2 2.9 3.0 53 4.0 SW 41 46 22 25 1028.7 - -
23/02:20pm 12.4 3.5 3.0 52 4.1 SW 39 44 21 24 1028.5 - -
23/02:10pm 12.3 3.0 3.1 53 4.1 SW 41 46 22 25 1028.6 - -
23/02:00pm 12.4 3.1 3.0 52 4.1 SW 41 48 22 26 1028.7 - -
23/01:50pm 12.4 3.6 3.6 55 3.9 SW 39 46 21 25 1028.9 - -
23/01:40pm 12.3 3.1 3.3 54 4.0 SW 41 48 22 26 1028.4 - -
23/01:30pm 12.3 2.7 3.2 54 4.0 SW 43 52 23 28 1028.6 - -
23/01:20pm 12.4 2.7 2.9 52 4.2 SW 43 50 23 27 1028.8 - -
23/01:10pm 12.4 2.7 3.1 53 4.1 SW 43 48 23 26 1028.8 - -
23/01:00pm 12.6 2.9 2.9 51 4.3 SW 43 52 23 28 1028.5 - -
23/12:50pm 12.6 3.0 3.5 54 4.1 SW 43 52 23 28 1028.5 - -
23/12:40pm 12.7 3.8 3.1 52 4.3 SW 39 46 21 25 1028.4 - -
23/12:30pm 12.6 3.2 2.4 50 4.4 SW 41 48 22 26 1028.4 - -
23/12:20pm 12.3 2.5 2.3 50 4.3 SW 43 48 23 26 1028.5 - -
23/12:10pm 12.4 2.7 2.9 52 4.2 SW 43 50 23 27 1028.8 - -
23/12:00pm 12.5 2.6 2.7 51 4.3 SW 44 52 24 28 1028.9 - -
23/11:50am 12.8 3.1 2.9 51 4.4 SW 43 52 23 28 1028.5 - -
23/11:40am 12.8 3.8 2.4 49 4.5 SW 39 46 21 25 1028.4 - -
23/11:30am 12.8 3.4 2.2 48 4.6 SW 41 48 22 26 1028.5 - -
23/11:20am 12.8 3.4 2.1 48 4.6 SW 41 48 22 26 1028.5 - -
23/11:10am 12.8 3.4 2.4 49 4.5 SW 41 46 22 25 1028.8 - -
23/11:00am 12.7 2.6 1.7 47 4.7 SW 44 52 24 28 1029.3 - -
23/10:50am 12.6 2.7 2.7 51 4.3 SW 44 56 24 30 1029.0 - -
23/10:40am 12.4 2.6 2.3 50 4.4 SW 43 50 23 27 1029.3 - -
23/10:30am 12.5 2.5 2.0 48 4.5 SW 44 52 24 28 1029.4 - -
23/10:20am 12.6 2.0 3.1 52 4.2 SW 48 54 26 29 1029.0 - -
23/10:10am 12.6 2.4 3.4 53 4.1 SW 46 54 25 29 1028.8 - -
23/10:00am 12.6 2.5 3.5 54 4.1 SW 46 54 25 29 1028.8 - -
23/09:50am 12.6 2.4 3.0 52 4.2 SW 46 54 25 29 1029.0 - -
23/09:40am 12.6 2.8 3.1 52 4.2 SW 44 50 24 27 1028.9 - -
23/09:30am 12.8 2.6 3.1 51 4.3 SW 46 54 25 29 1028.8 - -
23/09:20am 12.8 3.0 3.6 53 4.1 SW 44 52 24 28 1028.9 - -
23/09:10am 13.1 3.7 4.2 54 4.1 SW 43 50 23 27 1028.7 - -
23/09:00am 13.1 3.4 3.7 53 4.2 SW 44 50 24 27 1028.7 - -
23/08:50am 13.2 3.5 3.9 53 4.2 SW 44 54 24 29 1028.3 - -
23/08:40am 13.2 3.8 4.5 55 4.0 SW 43 52 23 28 1028.5 - -
23/08:30am 13.1 3.5 4.4 55 4.0 SW 44 52 24 28 1028.5 - -
23/08:20am 13.5 3.9 4.6 55 4.1 SW 44 50 24 27 1028.2 - -
23/08:10am 13.1 3.2 4.8 57 3.8 SW 46 52 25 28 1028.3 - -
23/08:00am 13.2 3.8 5.2 58 3.7 SW 44 54 24 29 1028.4 - -
23/07:50am 12.8 4.0 5.7 62 3.3 SW 41 44 22 24 1028.2 - -
23/07:40am 12.6 3.8 5.5 62 3.3 SW 41 46 22 25 1027.8 - -
23/07:30am 12.4 4.0 5.5 63 3.2 SW 39 44 21 24 1028.1 - -
23/07:20am 12.5 3.7 5.4 62 3.3 SW 41 46 22 25 1028.0 - -
23/07:10am 12.6 4.2 5.8 63 3.2 SW 39 46 21 25 1027.9 - -
23/07:00am 12.4 4.9 6.2 66 2.9 SW 35 43 19 23 1027.9 - -
23/06:50am 12.4 4.5 6.2 66 2.9 SW 37 43 20 23 1027.8 - -
23/06:40am 12.4 4.5 6.4 67 2.9 SW 37 43 20 23 1027.5 - -
23/06:30am 12.2 4.7 6.4 67 2.8 SW 35 41 19 22 1027.4 - -
23/06:20am 12.1 4.3 6.6 69 2.6 SW 37 44 20 24 1027.5 - -
23/06:10am 12.0 4.7 7.2 72 2.3 SW 35 43 19 23 1027.4 - -
23/06:00am 11.9 4.7 7.7 75 2.0 SSW 35 41 19 22 1027.3 - -
23/05:50am 11.9 5.4 8.0 77 1.9 SSW 32 39 17 21 1027.1 - -
23/05:40am 11.7 5.2 8.0 78 1.8 SSW 32 35 17 19 1026.9 - -
23/05:30am 11.6 5.4 8.0 78 1.8 SSW 30 35 16 19 1026.6 - -
23/05:20am 11.5 5.3 7.9 78 1.8 SSW 30 33 16 18 1026.4 - -
23/05:10am 11.8 6.1 8.3 79 1.7 SSW 28 33 15 18 1026.0 - -
23/05:00am 11.7 6.0 8.2 79 1.7 SSW 28 33 15 18 1026.0 - -
23/04:50am 11.7 6.3 8.2 79 1.7 SSW 26 30 14 16 1026.0 - -
23/04:40am 11.6 5.9 8.2 79 1.7 SSW 28 32 15 17 1026.0 - -
23/04:30am 11.5 5.0 8.1 79 1.7 SSW 32 35 17 19 1025.9 - -
23/04:20am 11.4 4.7 8.1 80 1.6 SSW 33 39 18 21 1025.8 - -
23/04:10am 11.4 4.7 8.1 80 1.6 SSW 33 37 18 20 1025.6 - -
23/04:00am 11.4 4.4 8.3 81 1.5 SSW 35 41 19 22 1025.6 - -
23/03:50am 11.5 4.5 8.5 82 1.5 SSW 35 39 19 21 1025.5 - -
23/03:40am 11.5 4.9 8.5 82 1.5 SSW 33 39 18 21 1025.4 - -
23/03:30am 11.8 4.8 8.6 81 1.6 SSW 35 43 19 23 1025.2 - -
23/03:20am 12.1 5.5 8.4 78 1.8 SSW 33 41 18 22 1025.2 - -
23/03:10am 13.4 6.6 9.1 75 2.2 SW 35 48 19 26 1024.6 - -
23/03:00am 13.6 8.1 9.2 75 2.2 W 28 33 15 18 1024.2 - -
23/02:50am 13.7 8.2 9.3 75 2.2 W 28 35 15 19 1024.2 - -
23/02:40am 13.7 7.5 9.2 74 2.3 W 32 35 17 19 1024.2 - -
23/02:30am 13.6 7.7 9.2 75 2.2 WSW 30 35 16 19 1024.2 - -
23/02:20am 13.6 8.5 9.2 75 2.2 W 26 32 14 17 1024.3 - -
23/02:10am 13.6 8.5 9.1 74 2.3 W 26 32 14 17 1024.4 - -
23/02:00am 13.8 8.7 9.2 74 2.3 WSW 26 30 14 16 1024.5 - -
23/01:50am 13.9 7.7 9.2 73 2.4 WSW 32 41 17 22 1024.4 - -
23/01:40am 13.9 8.0 9.1 73 2.4 WSW 30 35 16 19 1024.5 - -
23/01:30am 13.8 7.9 9.0 73 2.4 WSW 30 35 16 19 1024.5 - -
23/01:20am 13.9 8.4 9.1 73 2.4 WSW 28 35 15 19 1024.6 - -
23/01:10am 13.9 8.0 9.1 73 2.4 WSW 30 33 16 18 1024.7 - -
23/01:00am 13.8 7.9 9.0 73 2.4 WSW 30 35 16 19 1024.7 - -
23/12:50am 13.8 7.5 9.0 73 2.4 WSW 32 35 17 19 1024.8 - -
23/12:40am 13.9 7.6 9.0 72 2.5 WSW 32 37 17 20 1024.9 - -
23/12:30am 13.9 8.0 9.0 72 2.5 WSW 30 35 16 19 1025.0 - -
23/12:20am 14.1 8.2 9.2 72 2.5 WSW 30 33 16 18 1025.1 - -
23/12:10am 14.0 7.7 9.1 72 2.5 WSW 32 35 17 19 1025.2 - -
23/12:00am 14.0 7.7 9.1 72 2.5 WSW 32 35 17 19 1025.3 - -
 
Date/Time
EST
Temp
°C
App
Temp
°C
Dew
Point
°C
Rel
Hum
%
Delta-T
°C
Wind Press
QNH
hPa
Press
MSL
hPa
Rain since
9am
mm
Dir  Spd
km/h
Gust
km/h
Spd
kts
Gust
kts
22/11:50pm 13.9 7.6 9.0 72 2.5 WSW 32 37 17 20 1025.3 - -
22/11:40pm 13.9 7.6 9.0 72 2.5 WSW 32 37 17 20 1025.3 - -
22/11:30pm 14.1 8.2 9.2 72 2.5 WSW 30 37 16 20 1025.4 - -
22/11:20pm 14.4 8.5 9.1 70 2.7 WSW 30 35 16 19 1025.3 - -
22/11:10pm 16.3 11.0 9.9 66 3.4 W 28 32 15 17 1025.2 - -
22/11:00pm 16.7 11.3 10.9 68 3.1 W 30 35 16 19 1025.1 - -
22/10:50pm 14.5 8.9 10.3 76 2.2 WSW 30 33 16 18 1025.1 - -
22/10:40pm 13.9 8.5 9.5 75 2.3 WSW 28 33 15 18 1025.3 - -
22/10:30pm 13.8 8.8 9.5 75 2.2 WSW 26 32 14 17 1025.3 - -
22/10:20pm 13.8 8.4 9.6 76 2.2 WSW 28 33 15 18 1025.3 - -
22/10:10pm 13.8 8.4 9.6 76 2.2 WSW 28 33 15 18 1025.3 - -
22/10:00pm 13.7 8.7 9.5 76 2.1 WSW 26 32 14 17 1025.4 - -
22/09:50pm 13.4 8.3 9.1 75 2.2 WSW 26 33 14 18 1025.3 - -
22/09:40pm 13.4 8.3 9.1 75 2.2 SW 26 33 14 18 1025.3 - -
22/09:30pm 13.5 8.4 9.2 75 2.2 WSW 26 32 14 17 1025.2 - -
22/09:20pm 13.5 8.0 9.1 75 2.2 WSW 28 32 15 17 1025.3 - -
22/09:10pm 13.7 8.2 9.2 74 2.3 WSW 28 35 15 19 1025.4 - -
22/09:00pm 13.7 8.2 9.3 75 2.2 WSW 28 33 15 18 1025.5 - -
22/08:50pm 13.7 8.6 9.3 75 2.2 WSW 26 32 14 17 1025.5 - -
22/08:40pm 13.8 8.7 9.3 74 2.3 WSW 26 32 14 17 1025.6 - -
22/08:30pm 13.8 8.0 9.3 74 2.3 WSW 30 35 16 19 1025.6 - -
22/08:20pm 13.9 8.9 9.4 74 2.3 WSW 26 35 14 19 1025.7 - -
22/08:10pm 13.9 8.8 9.3 74 2.3 WSW 26 30 14 16 1025.6 - -
22/08:00pm 13.8 8.3 9.3 74 2.3 WSW 28 33 15 18 1025.6 - -
22/07:50pm 13.7 7.5 9.3 75 2.2 WSW 32 35 17 19 1025.5 - -
22/07:40pm 13.4 7.5 9.1 75 2.2 WSW 30 37 16 20 1025.6 - -
22/07:30pm 13.4 7.9 9.1 75 2.2 WSW 28 32 15 17 1025.6 - -
22/07:20pm 13.5 7.6 9.2 75 2.2 WSW 30 35 16 19 1025.5 - -
22/07:10pm 13.4 7.1 9.1 75 2.2 WSW 32 37 17 20 1025.4 - -
22/07:00pm 13.2 6.9 8.9 75 2.2 WSW 32 37 17 20 1025.3 - -
22/06:50pm 13.0 7.4 8.6 74 2.2 WSW 28 35 15 19 1025.3 - -
22/06:40pm 13.0 6.0 8.6 74 2.2 SW 35 41 19 22 1025.0 - -
22/06:30pm 13.1 6.7 8.6 74 2.3 SW 32 39 17 21 1025.0 - -
22/06:20pm 13.1 6.7 8.6 74 2.3 SW 32 37 17 20 1025.1 - -
22/06:10pm 13.2 7.2 8.6 73 2.3 SW 30 35 16 19 1024.9 - -
22/06:00pm 13.3 7.3 8.6 73 2.4 SW 30 35 16 19 1024.6 - -
22/05:50pm 13.4 7.0 8.7 73 2.4 SW 32 37 17 20 1024.7 - -
22/05:40pm 13.4 7.0 8.6 73 2.4 SW 32 37 17 20 1024.7 - -
22/05:30pm 13.4 6.4 8.5 72 2.5 SW 35 39 19 21 1024.5 - -
22/05:20pm 13.5 6.5 8.5 72 2.5 SW 35 41 19 22 1024.4 - -
22/05:10pm 13.5 7.1 8.6 72 2.5 SW 32 39 17 21 1024.5 - -
22/05:00pm 13.5 7.5 8.7 73 2.4 SW 30 37 16 20 1024.5 - -
22/04:50pm 13.4 7.4 8.5 72 2.5 SW 30 39 16 21 1024.4 - -
22/04:40pm 13.3 8.4 8.4 72 2.4 SSW 24 32 13 17 1024.4 - -
22/04:30pm 13.3 7.2 8.2 71 2.5 SSW 30 35 16 19 1024.4 - -
22/04:20pm 13.8 8.1 8.2 69 2.8 SSW 28 35 15 19 1024.3 - -
22/04:10pm 13.8 8.5 8.4 70 2.7 SW 26 32 14 17 1024.0 - -
22/04:00pm 13.4 8.0 8.2 71 2.6 SSW 26 32 14 17 1024.0 - -
22/03:50pm 13.6 9.4 8.1 69 2.7 SSW 20 24 11 13 1023.9 - -
22/03:40pm 13.9 8.6 8.3 69 2.8 SSW 26 33 14 18 1023.9 - -
22/03:30pm 13.9 8.6 8.6 70 2.7 SW 26 33 14 18 1023.8 - -
22/03:20pm 13.9 9.1 8.7 71 2.6 SW 24 28 13 15 1023.7 - -
22/03:10pm 13.8 9.0 8.8 72 2.5 SW 24 30 13 16 1023.8 - -
22/03:00pm 13.8 9.0 8.8 72 2.5 SW 24 30 13 16 1023.9 - -
22/02:50pm 13.7 8.5 8.8 72 2.5 SW 26 32 14 17 1023.9 - -
22/02:40pm 13.5 9.0 8.7 73 2.4 SSW 22 28 12 15 1023.9 - -
22/02:30pm 13.7 8.5 8.8 72 2.5 SSW 26 32 14 17 1024.1 - -
22/02:20pm 13.9 8.7 8.7 71 2.6 SSW 26 32 14 17 1024.2 - -
22/02:10pm 14.7 9.2 9.0 68 2.9 SW 28 33 15 18 1024.2 - -
22/02:00pm 14.8 9.6 9.0 68 3.0 SW 26 32 14 17 1024.0 - -
22/01:50pm 14.9 10.2 9.3 69 2.9 SW 24 30 13 16 1023.8 - -
22/01:40pm 15.2 11.3 9.3 68 3.0 SW 20 26 11 14 1023.8 - -
22/01:30pm 15.4 11.5 9.3 67 3.1 SW 20 26 11 14 1023.9 - -
22/01:20pm 15.7 12.0 9.3 65 3.3 WSW 19 24 10 13 1024.0 - -
22/01:10pm 15.8 12.1 9.3 65 3.4 WSW 19 22 10 12 1024.2 - -
22/01:00pm 15.9 11.9 9.2 64 3.5 WSW 20 22 11 12 1024.2 - -
22/12:50pm 16.0 12.3 9.3 64 3.5 WSW 19 20 10 11 1024.2 - -
22/12:40pm 15.8 12.1 9.5 66 3.3 WSW 19 24 10 13 1024.3 - -
22/12:30pm 15.6 11.9 9.4 66 3.2 WSW 19 20 10 11 1024.3 - -
22/12:20pm 15.3 11.9 9.3 67 3.1 WSW 17 20 9 11 1024.4 - -
22/12:10pm 15.2 11.8 9.3 68 3.0 W 17 22 9 12 1024.5 - -
22/12:00pm 15.3 12.4 9.6 69 3.0 W 15 19 8 10 1024.6 - -
22/11:50am 15.4 12.5 9.8 69 2.9 W 15 17 8 9 1024.7 - -
22/11:10am 15.8 13.0 10.0 68 3.0 W 15 17 8 9 1024.9 - -
22/11:00am 15.8 13.0 10.0 68 3.0 W 15 17 8 9 1025.0 - -
22/10:50am 15.9 13.1 10.0 68 3.1 W 15 17 8 9 1025.1 - -
22/10:40am 15.8 13.0 9.9 68 3.1 W 15 17 8 9 1025.3 - -
22/10:30am 16.0 13.2 10.1 68 3.1 W 15 17 8 9 1025.4 - -
22/10:20am 16.0 12.8 10.0 67 3.1 W 17 19 9 10 1025.5 - -
22/10:10am 16.4 13.7 10.2 66 3.3 W 15 17 8 9 1025.5 - -
22/10:00am 16.5 13.8 10.4 67 3.2 WNW 15 17 8 9 1025.5 - -
22/09:50am 16.3 13.6 10.4 68 3.1 WNW 15 17 8 9 1025.5 - -
22/09:40am 16.0 13.2 10.1 68 3.1 WNW 15 17 8 9 1025.5 - -
22/09:30am 15.8 13.0 9.9 68 3.1 WNW 15 17 8 9 1025.5 - -
22/08:40am 16.1 14.1 10.0 67 3.2 WNW 11 13 6 7 1025.9 - -
22/08:30am 16.2 14.2 10.0 66 3.3 WNW 11 13 6 7 1026.0 - -
22/08:20am 16.4 14.0 10.1 66 3.3 WNW 13 13 7 7 1026.0 - -
22/08:10am 16.3 14.3 10.1 66 3.3 WNW 11 13 6 7 1025.9 - -
22/08:00am 16.5 14.5 10.1 66 3.4 WNW 11 11 6 6 1026.0 - -
22/07:50am 16.7 15.1 10.1 65 3.5 WNW 9 11 5 6 1025.9 - -
22/07:40am 17.0 15.9 10.5 65 3.5 WNW 7 9 4 5 1025.9 - -
22/07:30am 16.4 15.2 10.3 67 3.2 WNW 7 9 4 5 1025.8 - -
22/07:20am 16.3 15.0 10.0 66 3.3 WNW 7 9 4 5 1025.9 - -
22/07:10am 16.1 14.4 10.0 67 3.2 W 9 11 5 6 1025.9 - -
22/07:00am 15.6 13.9 9.8 68 3.0 W 9 11 5 6 1025.9 - -
22/06:50am 15.5 13.4 9.7 68 3.0 W 11 13 6 7 1025.9 - -
22/06:40am 15.6 13.5 9.7 68 3.1 W 11 13 6 7 1025.9 - -
22/06:10am 15.7 12.8 9.7 67 3.1 WNW 15 17 8 9 1025.7 - -
22/05:50am 15.1 11.9 9.8 70 2.8 WNW 17 19 9 10 1025.7 - -
22/05:40am 14.6 11.4 9.9 73 2.4 WNW 17 19 9 10 1025.6 - -
22/04:40am 13.8 10.5 9.7 76 2.1 W 17 19 9 10 1025.3 - -
22/04:30am 14.1 10.9 9.9 76 2.2 WNW 17 20 9 11 1025.2 - -
22/04:20am 14.2 10.7 10.1 76 2.1 WNW 19 20 10 11 1025.2 - -
22/04:10am 14.3 10.9 10.4 77 2.0 WNW 19 20 10 11 1025.2 - -
22/04:00am 14.1 10.7 10.4 78 1.9 WNW 19 20 10 11 1025.2 - -
22/03:50am 13.9 10.4 10.3 79 1.9 NW 19 22 10 12 1025.1 - -
22/03:40am 13.7 10.6 10.3 80 1.8 NW 17 20 9 11 1025.0 - -
22/03:30am 13.7 10.3 10.5 81 1.7 NW 19 20 10 11 1024.9 - -
22/03:20am 13.5 10.4 10.4 81 1.6 NW 17 19 9 10 1024.9 - -
22/03:10am 13.4 10.3 10.4 82 1.6 NW 17 20 9 11 1024.8 - -
22/03:00am 13.3 10.2 10.2 81 1.6 NW 17 19 9 10 1024.9 - -
22/02:50am 13.4 10.7 10.3 81 1.6 NW 15 19 8 10 1024.9 - -
22/02:40am 13.5 10.8 10.2 80 1.7 NW 15 17 8 9 1024.8 - -
22/02:30am 13.5 11.1 10.1 80 1.8 NW 13 15 7 8 1024.8 - -
22/02:20am 13.8 11.5 10.4 80 1.8 NW 13 17 7 9 1024.9 - -
22/02:10am 13.9 12.0 10.5 80 1.8 NW 11 13 6 7 1024.9 - -
22/02:00am 13.9 12.0 10.4 79 1.8 NW 11 13 6 7 1025.0 - -
22/01:50am 13.9 11.6 10.3 79 1.9 WNW 13 15 7 8 1025.0 - -
22/01:40am 14.0 11.3 10.4 79 1.9 WNW 15 17 8 9 1025.1 - -
22/01:30am 13.9 11.6 10.3 79 1.9 WNW 13 15 7 8 1025.2 - -
22/01:20am 13.8 11.0 10.1 78 1.9 WNW 15 17 8 9 1025.3 - -
22/01:10am 13.8 11.0 10.0 78 2.0 WNW 15 17 8 9 1025.4 - -
22/01:00am 13.8 10.9 9.8 77 2.1 W 15 17 8 9 1025.5 - -
22/12:50am 13.8 11.3 9.6 76 2.2 W 13 15 7 8 1025.7 - -
22/12:40am 15.3 13.2 11.3 77 2.1 WSW 13 15 7 8 1025.8 - -
22/12:30am 14.2 12.1 11.3 83 1.5 WSW 13 15 7 8 1025.9 - -
22/12:20am 12.6 10.1 9.6 82 1.5 WSW 13 15 7 8 1025.9 - -
22/12:10am 12.7 10.2 9.7 82 1.5 WSW 13 17 7 9 1026.0 - -
22/12:00am 13.1 10.7 10.1 82 1.5 WSW 13 15 7 8 1026.1 - -
 
Date/Time
EST
Temp
°C
App
Temp
°C
Dew
Point
°C
Rel
Hum
%
Delta-T
°C
Wind Press
QNH
hPa
Press
MSL
hPa
Rain since
9am
mm
Dir  Spd
km/h
Gust
km/h
Spd
kts
Gust
kts
21/11:50pm 13.5 11.6 10.5 82 1.6 W 11 15 6 8 1026.1 - -
21/11:40pm 14.0 12.7 11.1 83 1.5 W 9 11 5 6 1026.2 - -
21/11:30pm 14.1 12.5 11.4 84 1.4 WNW 11 13 6 7 1026.2 - -
21/11:20pm 14.2 13.0 11.6 84 1.4 WNW 9 11 5 6 1026.2 - -
21/11:10pm 13.9 12.6 11.3 84 1.4 WNW 9 9 5 5 1026.2 - -
21/11:00pm 13.2 12.1 10.7 85 1.3 W 7 9 4 5 1026.3 - -
21/10:50pm 13.0 11.5 10.4 84 1.3 W 9 11 5 6 1026.3 - -
21/10:40pm 12.8 11.2 10.2 84 1.3 W 9 11 5 6 1026.3 - -
21/10:20pm 12.8 10.8 10.0 83 1.4 WSW 11 13 6 7 1026.3 - -
21/10:10pm 12.8 10.4 10.0 83 1.4 WSW 13 17 7 9 1026.4 - -
21/10:00pm 12.9 10.1 10.1 83 1.4 WSW 15 19 8 10 1026.4 - -
21/09:50pm 12.9 9.7 10.1 83 1.4 SW 17 19 9 10 1026.5 - -
21/09:40pm 13.0 10.2 10.1 82 1.5 SW 15 19 8 10 1026.6 - -
21/09:30pm 13.0 9.8 10.1 82 1.5 SW 17 19 9 10 1026.6 - -

Other Formats:

Comma delimited format used in spreadsheet applications
http://www.bom.gov.au/fwo/IDV60801/IDV60801.55039.axf

JavaScript Object Notation format (JSON) in row-major order
http://www.bom.gov.au/fwo/IDV60801/IDV60801.55039.json